createdAt,value
2023-03-26T00:00:51.685Z,7.23
2023-03-26T00:01:51.715Z,7.28
2023-03-26T00:02:51.682Z,7.29
2023-03-26T00:03:51.658Z,7.32
2023-03-26T00:04:51.643Z,7.35
2023-03-26T00:05:51.757Z,7.36
2023-03-26T00:06:51.596Z,7.39
2023-03-26T00:07:51.599Z,7.47
2023-03-26T00:08:51.579Z,7.56
2023-03-26T00:09:51.587Z,7.63
2023-03-26T00:10:51.549Z,7.66
2023-03-26T00:11:51.547Z,7.69
2023-03-26T00:12:51.520Z,7.70
2023-03-26T00:13:51.512Z,7.75
2023-03-26T00:14:51.526Z,7.80
2023-03-26T00:15:51.617Z,7.87
2023-03-26T00:16:51.516Z,7.91
2023-03-26T00:17:51.889Z,7.93
2023-03-26T00:18:51.437Z,7.93
2023-03-26T00:19:51.451Z,7.94
2023-03-26T00:20:51.407Z,7.91
2023-03-26T00:21:51.423Z,7.90
2023-03-26T00:22:51.404Z,7.85
2023-03-26T00:23:51.376Z,7.82
2023-03-26T00:24:51.377Z,7.82
2023-03-26T00:25:51.532Z,7.79
2023-03-26T00:26:51.324Z,7.77
2023-03-26T00:27:51.326Z,7.80
2023-03-26T00:28:51.303Z,7.85
2023-03-26T00:29:51.316Z,7.90
2023-03-26T00:30:51.356Z,7.98
2023-03-26T00:31:51.273Z,8.06
2023-03-26T00:32:53.389Z,8.12
2023-03-26T00:33:51.255Z,8.16
2023-03-26T00:34:51.285Z,8.24
2023-03-26T00:35:51.267Z,8.28
2023-03-26T00:36:51.194Z,8.31
2023-03-26T00:37:51.189Z,8.33
2023-03-26T00:38:51.181Z,8.33
2023-03-26T00:39:51.204Z,8.33
2023-03-26T00:40:51.158Z,8.31
2023-03-26T00:41:51.128Z,8.30
2023-03-26T00:42:51.120Z,8.33
2023-03-26T00:43:51.107Z,8.41
2023-03-26T00:44:51.088Z,8.45
2023-03-26T00:45:51.211Z,8.49
2023-03-26T00:46:51.068Z,8.51
2023-03-26T00:47:51.073Z,8.53
2023-03-26T00:48:51.057Z,8.55
2023-03-26T00:49:51.038Z,8.53
2023-03-26T00:50:51.050Z,8.52
2023-03-26T00:51:51.005Z,8.51
2023-03-26T00:52:50.985Z,8.49
2023-03-26T00:53:50.981Z,8.48
2023-03-26T00:54:50.993Z,8.45
2023-03-26T00:55:51.095Z,8.44
2023-03-26T00:56:50.992Z,8.44
2023-03-26T00:57:50.916Z,8.44
2023-03-26T00:58:50.941Z,8.49
2023-03-26T00:59:50.894Z,8.52
2023-03-26T01:00:50.915Z,8.53
2023-03-26T01:01:50.905Z,8.52
2023-03-26T01:02:50.911Z,8.53
2023-03-26T01:04:05.319Z,8.52
2023-03-26T01:04:50.939Z,8.52
2023-03-26T01:05:50.809Z,8.51
2023-03-26T01:06:50.806Z,8.49
2023-03-26T01:07:50.789Z,8.49
2023-03-26T01:08:50.775Z,8.48
2023-03-26T01:09:50.761Z,8.46
2023-03-26T01:10:50.791Z,8.45
2023-03-26T01:11:50.730Z,8.42
2023-03-26T01:12:50.715Z,8.42
2023-03-26T01:13:50.723Z,8.38
2023-03-26T01:14:51.999Z,8.34
2023-03-26T01:15:50.784Z,8.31
2023-03-26T01:16:50.671Z,8.28
2023-03-26T01:17:50.706Z,8.24
2023-03-26T01:18:50.637Z,8.20
2023-03-26T01:19:50.650Z,8.13
2023-03-26T01:20:50.686Z,8.09
2023-03-26T01:21:50.753Z,8.08
2023-03-26T01:22:50.602Z,8.06
2023-03-26T01:23:50.581Z,8.03
2023-03-26T01:24:50.562Z,8.03
2023-03-26T01:25:50.574Z,8.00
2023-03-26T01:26:50.534Z,7.98
2023-03-26T01:27:50.512Z,7.97
2023-03-26T01:28:50.510Z,7.97
2023-03-26T01:29:50.496Z,7.95
2023-03-26T01:30:50.505Z,7.95
2023-03-26T01:31:50.478Z,7.94
2023-03-26T01:32:50.533Z,7.94
2023-03-26T01:33:50.482Z,7.94
2023-03-26T01:34:50.425Z,7.95
2023-03-26T01:35:50.491Z,7.95
2023-03-26T01:36:50.395Z,7.97
2023-03-26T01:37:50.503Z,7.97
2023-03-26T01:38:50.398Z,7.95
2023-03-26T01:39:50.358Z,8.00
2023-03-26T01:40:50.340Z,8.03
2023-03-26T01:41:50.338Z,8.06
2023-03-26T01:42:50.323Z,8.08
2023-03-26T01:43:50.327Z,8.06
2023-03-26T01:44:50.309Z,8.09
2023-03-26T01:45:50.378Z,8.06
2023-03-26T01:46:50.314Z,8.08
2023-03-26T01:47:50.259Z,8.08
2023-03-26T01:48:50.233Z,8.08
2023-03-26T01:49:50.230Z,8.10
2023-03-26T01:50:50.214Z,8.13
2023-03-26T01:51:50.226Z,8.16
2023-03-26T01:52:50.189Z,8.19
2023-03-26T01:53:50.191Z,8.23
2023-03-26T01:54:50.179Z,8.24
2023-03-26T01:55:50.151Z,8.27
2023-03-26T01:56:50.187Z,8.28
2023-03-26T01:57:50.112Z,8.24
2023-03-26T01:58:50.135Z,8.19
2023-03-26T01:59:50.093Z,8.15
2023-03-26T02:00:50.081Z,8.12
2023-03-26T02:01:50.135Z,8.08
2023-03-26T02:02:50.108Z,8.09
2023-03-26T02:03:50.059Z,8.09
2023-03-26T02:04:50.039Z,8.10
2023-03-26T02:05:50.020Z,8.10
2023-03-26T02:06:49.999Z,8.10
2023-03-26T02:07:49.999Z,8.12
2023-03-26T02:08:49.959Z,8.12
2023-03-26T02:09:49.967Z,8.12
2023-03-26T02:10:49.930Z,8.13
2023-03-26T02:11:49.935Z,8.16
2023-03-26T02:12:49.951Z,8.15
2023-03-26T02:13:49.907Z,8.16
2023-03-26T02:14:49.911Z,8.18
2023-03-26T02:15:49.955Z,8.19
2023-03-26T02:16:49.859Z,8.23
2023-03-26T02:17:49.874Z,8.23
2023-03-26T02:18:49.862Z,8.20
2023-03-26T02:19:49.814Z,8.20
2023-03-26T02:20:49.811Z,8.19
2023-03-26T02:21:49.798Z,8.19
2023-03-26T02:22:49.774Z,8.19
2023-03-26T02:23:49.796Z,8.19
2023-03-26T02:24:49.749Z,8.19
2023-03-26T02:25:49.752Z,8.20
2023-03-26T02:26:49.731Z,8.23
2023-03-26T02:27:49.801Z,8.27
2023-03-26T02:28:49.734Z,8.33
2023-03-26T02:29:49.681Z,8.36
2023-03-26T02:30:49.680Z,8.38
2023-03-26T02:31:49.724Z,8.41
2023-03-26T02:32:49.651Z,8.41
2023-03-26T02:33:49.621Z,8.42
2023-03-26T02:34:49.648Z,8.42
2023-03-26T02:35:49.756Z,8.42
2023-03-26T02:36:49.617Z,8.42
2023-03-26T02:37:49.568Z,8.42
2023-03-26T02:38:49.566Z,8.41
2023-03-26T02:39:49.573Z,8.42
2023-03-26T02:40:49.528Z,8.42
2023-03-26T02:41:49.547Z,8.41
2023-03-26T02:42:49.506Z,8.34
2023-03-26T02:43:49.500Z,8.31
2023-03-26T02:44:49.512Z,8.28
2023-03-26T02:45:49.536Z,8.23
2023-03-26T02:46:49.448Z,8.20
2023-03-26T02:47:49.440Z,8.18
2023-03-26T02:48:49.425Z,8.23
2023-03-26T02:49:49.447Z,8.19
2023-03-26T02:50:49.436Z,8.19
2023-03-26T02:51:49.395Z,8.19
2023-03-26T02:52:49.384Z,8.23
2023-03-26T02:53:49.362Z,8.24
2023-03-26T02:54:49.379Z,8.26
2023-03-26T02:55:49.346Z,8.28
2023-03-26T02:56:49.369Z,8.30
2023-03-26T02:57:49.312Z,8.31
2023-03-26T02:58:49.286Z,8.30
2023-03-26T02:59:49.280Z,8.30
2023-03-26T03:00:49.327Z,8.28
2023-03-26T03:01:49.280Z,8.30
2023-03-26T03:02:49.307Z,8.27
2023-03-26T03:03:49.229Z,8.23
2023-03-26T03:04:49.230Z,8.12
2023-03-26T03:05:49.228Z,8.06
2023-03-26T03:06:49.184Z,8.05
2023-03-26T03:07:49.189Z,7.98
2023-03-26T03:08:49.178Z,7.98
2023-03-26T03:09:49.150Z,7.97
2023-03-26T03:10:49.188Z,7.93
2023-03-26T03:11:49.135Z,7.88
2023-03-26T03:12:49.111Z,7.83
2023-03-26T03:13:49.112Z,7.82
2023-03-26T03:14:49.089Z,7.83
2023-03-26T03:15:49.089Z,7.85
2023-03-26T03:16:49.161Z,7.83
2023-03-26T03:17:49.138Z,7.80
2023-03-26T03:18:49.033Z,7.76
2023-03-26T03:19:49.012Z,7.75
2023-03-26T03:20:49.036Z,7.73
2023-03-26T03:21:49.005Z,7.70
2023-03-26T03:22:48.986Z,7.72
2023-03-26T03:23:48.956Z,7.70
2023-03-26T03:24:48.938Z,7.72
2023-03-26T03:25:48.959Z,7.72
2023-03-26T03:26:48.935Z,7.76
2023-03-26T03:27:48.936Z,7.79
2023-03-26T03:28:48.897Z,7.77
2023-03-26T03:29:48.880Z,7.77
2023-03-26T03:30:48.969Z,7.80
2023-03-26T03:31:48.890Z,7.82
2023-03-26T03:32:48.864Z,7.80
2023-03-26T03:33:48.856Z,7.82
2023-03-26T03:34:48.824Z,7.83
2023-03-26T03:35:48.861Z,7.82
2023-03-26T03:36:48.799Z,7.80
2023-03-26T03:37:48.784Z,7.77
2023-03-26T03:38:48.802Z,7.75
2023-03-26T03:39:48.748Z,7.73
2023-03-26T03:40:48.739Z,7.73
2023-03-26T03:41:48.723Z,7.72
2023-03-26T03:42:48.712Z,7.69
2023-03-26T03:43:48.688Z,7.67
2023-03-26T03:44:48.744Z,7.63
2023-03-26T03:45:48.728Z,7.58
2023-03-26T03:46:48.703Z,7.57
2023-03-26T03:47:48.700Z,7.53
2023-03-26T03:48:48.642Z,7.53
2023-03-26T03:49:48.614Z,7.51
2023-03-26T03:50:48.605Z,7.50
2023-03-26T03:51:48.593Z,7.54
2023-03-26T03:52:48.596Z,7.60
2023-03-26T03:53:48.560Z,7.67
2023-03-26T03:54:48.570Z,7.72
2023-03-26T03:55:48.536Z,7.76
2023-03-26T03:56:48.516Z,7.79
2023-03-26T03:57:48.547Z,7.83
2023-03-26T03:58:48.496Z,7.85
2023-03-26T03:59:48.544Z,7.90
2023-03-26T04:00:48.458Z,7.87
2023-03-26T04:01:48.489Z,7.87
2023-03-26T04:02:48.576Z,7.87
2023-03-26T04:03:48.532Z,7.82
2023-03-26T04:04:48.519Z,7.80
2023-03-26T04:05:48.414Z,7.77
2023-03-26T04:06:48.422Z,7.72
2023-03-26T04:07:48.374Z,7.69
2023-03-26T04:08:48.363Z,7.61
2023-03-26T04:09:48.350Z,7.58
2023-03-26T04:10:48.353Z,7.56
2023-03-26T04:11:48.351Z,7.53
2023-03-26T04:12:48.292Z,7.48
2023-03-26T04:13:48.316Z,7.43
2023-03-26T04:14:48.286Z,7.38
2023-03-26T04:15:48.363Z,7.33
2023-03-26T04:16:48.281Z,7.33
2023-03-26T04:17:48.348Z,7.32
2023-03-26T04:18:48.232Z,7.32
2023-03-26T04:19:48.217Z,7.31
2023-03-26T04:20:48.203Z,7.32
2023-03-26T04:21:48.221Z,7.35
2023-03-26T04:22:48.191Z,7.35
2023-03-26T04:23:48.165Z,7.35
2023-03-26T04:24:48.159Z,7.36
2023-03-26T04:25:48.140Z,7.36
2023-03-26T04:26:48.172Z,7.38
2023-03-26T04:27:48.114Z,7.36
2023-03-26T04:28:48.119Z,7.35
2023-03-26T04:29:48.074Z,7.33
2023-03-26T04:30:48.070Z,7.33
2023-03-26T04:31:48.098Z,7.33
2023-03-26T04:32:48.061Z,7.33
2023-03-26T04:33:48.034Z,7.29
2023-03-26T04:34:48.008Z,7.29
2023-03-26T04:35:48.212Z,7.29
2023-03-26T04:36:47.998Z,7.31
2023-03-26T04:37:47.975Z,7.33
2023-03-26T04:38:47.959Z,7.38
2023-03-26T04:39:47.949Z,7.38
2023-03-26T04:40:47.937Z,7.38
2023-03-26T04:41:47.944Z,7.38
2023-03-26T04:42:47.900Z,7.38
2023-03-26T04:43:47.896Z,7.38
2023-03-26T04:44:47.894Z,7.38
2023-03-26T04:45:47.882Z,7.36
2023-03-26T04:46:47.857Z,7.29
2023-03-26T04:47:47.899Z,7.24
2023-03-26T04:48:47.835Z,7.15
2023-03-26T04:49:47.805Z,7.10
2023-03-26T04:50:47.791Z,7.06
2023-03-26T04:51:47.818Z,7.03
2023-03-26T04:52:47.770Z,7.03
2023-03-26T04:53:47.758Z,7.02
2023-03-26T04:54:47.737Z,6.99
2023-03-26T04:55:47.726Z,6.95
2023-03-26T04:56:47.745Z,6.89
2023-03-26T04:57:47.734Z,6.85
2023-03-26T04:58:47.680Z,6.88
2023-03-26T04:59:47.690Z,6.84
2023-03-26T05:00:47.685Z,6.79
2023-03-26T05:01:47.653Z,6.77
2023-03-26T05:02:47.713Z,6.74
2023-03-26T05:03:47.624Z,6.72
2023-03-26T05:04:47.621Z,6.69
2023-03-26T05:05:47.586Z,6.69
2023-03-26T05:06:47.573Z,6.72
2023-03-26T05:07:47.589Z,6.72
2023-03-26T05:08:47.584Z,6.74
2023-03-26T05:09:47.541Z,6.75
2023-03-26T05:10:47.524Z,6.75
2023-03-26T05:11:47.520Z,6.75
2023-03-26T05:12:47.600Z,6.75
2023-03-26T05:13:47.509Z,6.77
2023-03-26T05:14:47.485Z,6.75
2023-03-26T05:15:47.456Z,6.78
2023-03-26T05:16:47.483Z,6.75
2023-03-26T05:17:47.439Z,6.77
2023-03-26T05:18:47.440Z,6.78
2023-03-26T05:19:47.413Z,6.77
2023-03-26T05:20:47.403Z,6.77
2023-03-26T05:21:47.364Z,6.74
2023-03-26T05:22:47.359Z,6.72
2023-03-26T05:23:47.350Z,6.66
2023-03-26T05:24:47.348Z,6.63
2023-03-26T05:25:47.433Z,6.60
2023-03-26T05:26:47.321Z,6.57
2023-03-26T05:27:47.305Z,6.59
2023-03-26T05:28:47.293Z,6.56
2023-03-26T05:29:47.324Z,6.57
2023-03-26T05:30:47.265Z,6.59
2023-03-26T05:31:47.332Z,6.59
2023-03-26T05:32:47.269Z,6.62
2023-03-26T05:33:47.273Z,6.62
2023-03-26T05:34:47.239Z,6.63
2023-03-26T05:35:47.262Z,6.66
2023-03-26T05:36:47.191Z,6.64
2023-03-26T05:37:47.170Z,6.67
2023-03-26T05:38:47.271Z,6.69
2023-03-26T05:39:47.285Z,6.72
2023-03-26T05:40:47.121Z,6.75
2023-03-26T05:41:47.134Z,6.74
2023-03-26T05:42:47.099Z,6.77
2023-03-26T05:43:47.083Z,6.75
2023-03-26T05:44:47.088Z,6.75
2023-03-26T05:45:47.087Z,6.78
2023-03-26T05:46:47.056Z,6.78
2023-03-26T05:47:47.057Z,6.79
2023-03-26T05:48:47.021Z,6.79
2023-03-26T05:49:47.057Z,6.78
2023-03-26T05:50:46.983Z,6.78
2023-03-26T05:51:46.972Z,6.77
2023-03-26T05:52:46.966Z,6.75
2023-03-26T05:53:46.946Z,6.75
2023-03-26T05:54:46.959Z,6.75
2023-03-26T05:55:46.936Z,6.77
2023-03-26T05:56:46.939Z,6.75
2023-03-26T05:57:46.898Z,6.74
2023-03-26T05:58:46.891Z,6.69
2023-03-26T05:59:46.895Z,6.67
2023-03-26T06:00:46.879Z,6.66
2023-03-26T06:01:46.829Z,6.67
2023-03-26T06:02:47.097Z,6.67
2023-03-26T06:03:46.966Z,6.67
2023-03-26T06:04:46.858Z,6.69
2023-03-26T06:05:46.826Z,6.74
2023-03-26T06:06:46.781Z,6.75
2023-03-26T06:07:46.762Z,6.78
2023-03-26T06:08:46.762Z,6.77
2023-03-26T06:09:46.738Z,6.78
2023-03-26T06:10:46.741Z,6.79
2023-03-26T06:11:46.703Z,6.79
2023-03-26T06:12:46.706Z,6.82
2023-03-26T06:13:46.673Z,6.82
2023-03-26T06:14:46.671Z,6.84
2023-03-26T06:15:46.761Z,6.85
2023-03-26T06:16:46.635Z,6.87
2023-03-26T06:17:46.690Z,6.88
2023-03-26T06:18:46.655Z,6.88
2023-03-26T06:19:46.608Z,6.88
2023-03-26T06:20:46.578Z,6.92
2023-03-26T06:21:46.597Z,6.93
2023-03-26T06:22:46.591Z,6.95
2023-03-26T06:23:46.548Z,6.96
2023-03-26T06:24:46.525Z,6.99
2023-03-26T06:25:46.516Z,7.03
2023-03-26T06:26:46.519Z,7.05
2023-03-26T06:27:46.480Z,7.05
2023-03-26T06:28:46.506Z,7.06
2023-03-26T06:29:46.470Z,7.11
2023-03-26T06:30:46.461Z,7.13
2023-03-26T06:31:46.460Z,7.14
2023-03-26T06:32:46.443Z,7.14
2023-03-26T06:33:46.428Z,7.15
2023-03-26T06:34:46.412Z,7.15
2023-03-26T06:35:46.458Z,7.17
2023-03-26T06:36:46.374Z,7.17
2023-03-26T06:37:46.376Z,7.15
2023-03-26T06:38:46.346Z,7.17
2023-03-26T06:39:46.354Z,7.17
2023-03-26T06:40:46.326Z,7.17
2023-03-26T06:41:46.299Z,7.17
2023-03-26T06:43:08.625Z,7.18
2023-03-26T06:43:46.297Z,7.21
2023-03-26T06:44:46.284Z,7.21
2023-03-26T06:45:46.268Z,7.24
2023-03-26T06:46:46.285Z,7.25
2023-03-26T06:47:46.265Z,7.28
2023-03-26T06:48:46.225Z,7.25
2023-03-26T06:49:46.191Z,7.24
2023-03-26T06:50:46.215Z,7.25
2023-03-26T06:51:46.160Z,7.25
2023-03-26T06:52:46.156Z,7.25
2023-03-26T06:53:46.152Z,7.29
2023-03-26T06:54:46.144Z,7.31
2023-03-26T06:55:46.143Z,7.32
2023-03-26T06:56:46.149Z,7.32
2023-03-26T06:57:46.089Z,7.35
2023-03-26T06:58:46.083Z,7.36
2023-03-26T06:59:46.076Z,7.40
2023-03-26T07:00:46.140Z,7.43
2023-03-26T07:01:46.852Z,7.47
2023-03-26T07:02:46.081Z,7.50
2023-03-26T07:03:46.077Z,7.54
2023-03-26T07:04:46.002Z,7.56
2023-03-26T07:05:46.011Z,7.60
2023-03-26T07:06:46.023Z,7.61
2023-03-26T07:07:46.793Z,7.63
2023-03-26T07:08:45.960Z,7.69
2023-03-26T07:09:45.934Z,7.72
2023-03-26T07:10:45.926Z,7.76
2023-03-26T07:11:45.944Z,7.79
2023-03-26T07:12:45.895Z,7.82
2023-03-26T07:13:45.894Z,7.87
2023-03-26T07:14:45.867Z,7.94
2023-03-26T07:15:45.851Z,7.97
2023-03-26T07:16:45.884Z,8.03
2023-03-26T07:17:45.919Z,8.10
2023-03-26T07:18:45.810Z,8.20
2023-03-26T07:19:45.799Z,8.26
2023-03-26T07:20:45.783Z,8.24
2023-03-26T07:21:45.796Z,8.19
2023-03-26T07:22:45.777Z,8.16
2023-03-26T07:23:45.741Z,8.19
2023-03-26T07:24:45.734Z,8.18
2023-03-26T07:25:45.753Z,8.16
2023-03-26T07:26:45.715Z,8.16
2023-03-26T07:27:45.681Z,8.13
2023-03-26T07:29:05.181Z,8.13
2023-03-26T07:29:45.659Z,8.13
2023-03-26T07:30:45.685Z,8.13
2023-03-26T07:31:45.665Z,8.13
2023-03-26T07:32:45.640Z,8.18
2023-03-26T07:33:45.614Z,8.19
2023-03-26T07:34:45.627Z,8.23
2023-03-26T07:35:45.599Z,8.23
2023-03-26T07:36:45.569Z,8.27
2023-03-26T07:37:45.577Z,8.27
2023-03-26T07:38:45.601Z,8.30
2023-03-26T07:39:45.564Z,8.33
2023-03-26T07:40:45.533Z,8.36
2023-03-26T07:41:45.501Z,8.37
2023-03-26T07:42:45.525Z,8.37
2023-03-26T07:43:45.475Z,8.41
2023-03-26T07:44:45.456Z,8.44
2023-03-26T07:45:45.539Z,8.45
2023-03-26T07:46:45.427Z,8.49
2023-03-26T07:47:45.439Z,8.52
2023-03-26T07:48:45.406Z,8.56
2023-03-26T07:49:45.395Z,8.58
2023-03-26T07:50:45.398Z,8.63
2023-03-26T07:51:45.399Z,8.66
2023-03-26T07:52:45.371Z,8.67
2023-03-26T07:53:45.358Z,8.69
2023-03-26T07:54:45.333Z,8.70
2023-03-26T07:55:45.302Z,8.71
2023-03-26T07:56:45.404Z,8.73
2023-03-26T07:57:45.286Z,8.76
2023-03-26T07:58:45.265Z,8.78
2023-03-26T07:59:45.352Z,8.81
2023-03-26T08:00:45.404Z,8.84
2023-03-26T08:01:45.262Z,8.87
2023-03-26T08:02:45.318Z,8.91
2023-03-26T08:03:45.278Z,8.91
2023-03-26T08:04:45.288Z,8.92
2023-03-26T08:05:45.178Z,8.97
2023-03-26T08:06:45.184Z,9.00
2023-03-26T08:07:45.159Z,9.00
2023-03-26T08:08:45.127Z,9.04
2023-03-26T08:09:45.122Z,9.08
2023-03-26T08:10:45.102Z,9.11
2023-03-26T08:11:45.123Z,9.13
2023-03-26T08:12:45.085Z,9.16
2023-03-26T08:13:45.077Z,9.18
2023-03-26T08:14:45.066Z,9.18
2023-03-26T08:15:45.065Z,9.19
2023-03-26T08:16:45.054Z,9.21
2023-03-26T08:18:16.290Z,9.22
2023-03-26T08:18:45.027Z,9.23
2023-03-26T08:19:44.980Z,9.25
2023-03-26T08:20:44.965Z,9.25
2023-03-26T08:21:45.011Z,9.28
2023-03-26T08:22:44.954Z,9.31
2023-03-26T08:23:50.283Z,9.34
2023-03-26T08:24:44.906Z,9.37
2023-03-26T08:25:44.889Z,9.39
2023-03-26T08:26:44.909Z,9.43
2023-03-26T08:27:44.880Z,9.46
2023-03-26T08:28:44.888Z,9.48
2023-03-26T08:29:44.842Z,9.51
2023-03-26T08:30:44.843Z,9.55
2023-03-26T08:31:44.817Z,9.58
2023-03-26T08:32:44.820Z,9.61
2023-03-26T08:33:44.830Z,9.66
2023-03-26T08:34:44.776Z,9.72
2023-03-26T08:35:44.794Z,9.73
2023-03-26T08:36:44.754Z,9.72
2023-03-26T08:37:44.741Z,9.73
2023-03-26T08:38:46.822Z,9.76
2023-03-26T08:39:44.708Z,9.77
2023-03-26T08:40:44.695Z,9.82
2023-03-26T08:41:44.683Z,9.80
2023-03-26T08:42:44.677Z,9.74
2023-03-26T08:43:44.645Z,9.73
2023-03-26T08:44:44.660Z,9.72
2023-03-26T08:45:44.618Z,9.74
2023-03-26T08:46:44.654Z,9.77
2023-03-26T08:47:44.637Z,9.80
2023-03-26T08:48:44.618Z,9.83
2023-03-26T08:49:44.605Z,9.86
2023-03-26T08:50:44.576Z,9.92
2023-03-26T08:51:44.556Z,9.98
2023-03-26T08:52:44.580Z,10.04
2023-03-26T08:53:44.535Z,10.10
2023-03-26T08:54:44.534Z,10.16
2023-03-26T08:55:44.506Z,10.25
2023-03-26T08:56:44.509Z,10.37
2023-03-26T08:57:44.467Z,10.44
2023-03-26T08:58:44.489Z,10.51
2023-03-26T08:59:44.438Z,10.57
2023-03-26T09:00:44.440Z,10.60
2023-03-26T09:01:44.503Z,10.63
2023-03-26T09:02:44.397Z,10.67
2023-03-26T09:03:44.413Z,10.74
2023-03-26T09:04:44.405Z,10.79
2023-03-26T09:05:44.352Z,10.87
2023-03-26T09:06:44.339Z,10.93
2023-03-26T09:07:44.323Z,11.00
2023-03-26T09:08:53.717Z,11.04
2023-03-26T09:09:44.346Z,11.11
2023-03-26T09:10:44.272Z,11.12
2023-03-26T09:11:44.288Z,11.22
2023-03-26T09:12:44.264Z,11.26
2023-03-26T09:13:44.238Z,11.27
2023-03-26T09:14:44.249Z,11.29
2023-03-26T09:15:44.232Z,11.27
2023-03-26T09:16:44.298Z,11.23
2023-03-26T09:17:44.234Z,11.14
2023-03-26T09:18:44.169Z,11.11
2023-03-26T09:19:44.190Z,11.10
2023-03-26T09:20:44.192Z,11.10
2023-03-26T09:21:44.152Z,11.10
2023-03-26T09:22:44.136Z,11.12
2023-03-26T09:23:44.125Z,11.14
2023-03-26T09:24:44.115Z,11.18
2023-03-26T09:25:44.120Z,11.19
2023-03-26T09:26:44.095Z,11.23
2023-03-26T09:27:44.072Z,11.25
2023-03-26T09:28:44.097Z,11.26
2023-03-26T09:29:44.037Z,11.26
2023-03-26T09:30:44.039Z,11.29
2023-03-26T09:31:44.042Z,11.33
2023-03-26T09:32:44.069Z,11.35
2023-03-26T09:33:43.979Z,11.36
2023-03-26T09:34:43.961Z,11.37
2023-03-26T09:35:43.984Z,11.41
2023-03-26T09:36:43.961Z,11.43
2023-03-26T09:37:57.461Z,11.44
2023-03-26T09:38:43.941Z,11.44
2023-03-26T09:39:43.927Z,11.41
2023-03-26T09:40:43.914Z,11.41
2023-03-26T09:41:43.905Z,11.40
2023-03-26T09:42:43.882Z,11.37
2023-03-26T09:43:43.831Z,11.40
2023-03-26T09:44:43.827Z,11.36
2023-03-26T09:45:43.883Z,11.37
2023-03-26T09:46:46.147Z,11.40
2023-03-26T09:47:43.860Z,11.40
2023-03-26T09:48:43.771Z,11.40
2023-03-26T09:49:43.779Z,11.35
2023-03-26T09:50:43.766Z,11.33
2023-03-26T09:51:43.759Z,11.32
2023-03-26T09:52:43.730Z,11.33
2023-03-26T09:53:43.707Z,11.33
2023-03-26T09:54:43.698Z,11.35
2023-03-26T09:55:43.678Z,11.35
2023-03-26T09:56:43.707Z,11.33
2023-03-26T09:57:43.757Z,11.32
2023-03-26T09:58:43.635Z,11.30
2023-03-26T09:59:43.627Z,11.30
2023-03-26T10:00:43.681Z,11.32
2023-03-26T10:01:43.655Z,11.36
2023-03-26T10:02:46.763Z,11.35
2023-03-26T10:03:43.579Z,11.35
2023-03-26T10:04:43.583Z,11.36
2023-03-26T10:05:43.549Z,11.40
2023-03-26T10:06:43.562Z,11.37
2023-03-26T10:07:43.526Z,11.37
2023-03-26T10:08:43.497Z,11.37
2023-03-26T10:09:43.490Z,11.40
2023-03-26T10:10:43.892Z,11.40
2023-03-26T10:11:43.495Z,11.41
2023-03-26T10:12:43.466Z,11.41
2023-03-26T10:13:43.453Z,11.40
2023-03-26T10:14:43.424Z,11.36
2023-03-26T10:15:43.415Z,11.35
2023-03-26T10:16:43.486Z,11.32
2023-03-26T10:17:43.475Z,11.27
2023-03-26T10:18:43.375Z,11.26
2023-03-26T10:19:43.372Z,11.25
2023-03-26T10:20:43.372Z,11.23
2023-03-26T10:21:43.329Z,11.22
2023-03-26T10:22:43.364Z,11.22
2023-03-26T10:23:43.304Z,11.23
2023-03-26T10:24:43.280Z,11.23
2023-03-26T10:25:43.306Z,11.25
2023-03-26T10:27:08.482Z,11.25
2023-03-26T10:27:43.294Z,11.25
2023-03-26T10:28:43.241Z,11.23
2023-03-26T10:29:43.229Z,11.23
2023-03-26T10:30:43.219Z,11.22
2023-03-26T10:31:43.220Z,11.15
2023-03-26T10:32:43.216Z,11.12
2023-03-26T10:33:43.168Z,11.10
2023-03-26T10:34:43.135Z,11.05
2023-03-26T10:35:43.168Z,11.04
2023-03-26T10:36:43.168Z,11.00
2023-03-26T10:37:43.112Z,10.99
2023-03-26T10:38:43.084Z,10.99
2023-03-26T10:39:43.628Z,10.97
2023-03-26T10:40:43.063Z,10.94
2023-03-26T10:41:43.076Z,10.94
2023-03-26T10:42:43.050Z,10.94
2023-03-26T10:43:43.024Z,10.94
2023-03-26T10:44:43.029Z,10.93
2023-03-26T10:45:42.987Z,10.90
2023-03-26T10:46:42.997Z,10.86
2023-03-26T10:47:43.001Z,10.84
2023-03-26T10:48:42.954Z,10.84
2023-03-26T10:49:42.965Z,10.82
2023-03-26T10:50:42.944Z,10.82
2023-03-26T10:51:42.910Z,10.84
2023-03-26T10:52:42.943Z,10.82
2023-03-26T10:53:42.886Z,10.82
2023-03-26T10:54:42.915Z,10.81
2023-03-26T10:55:42.870Z,10.81
2023-03-26T10:56:42.858Z,10.79
2023-03-26T10:57:42.830Z,10.78
2023-03-26T10:58:48.703Z,10.78
2023-03-26T10:59:42.840Z,10.76
2023-03-26T11:00:42.809Z,10.78
2023-03-26T11:01:42.812Z,10.75
2023-03-26T11:02:42.833Z,10.72
2023-03-26T11:03:42.743Z,10.74
2023-03-26T11:04:42.775Z,10.74
2023-03-26T11:05:42.751Z,10.72
2023-03-26T11:06:42.722Z,10.75
2023-03-26T11:07:42.704Z,10.74
2023-03-26T11:08:42.683Z,10.71
2023-03-26T11:09:42.690Z,10.61
2023-03-26T11:10:42.666Z,10.46
2023-03-26T11:11:42.648Z,10.34
2023-03-26T11:12:42.630Z,10.26
2023-03-26T11:13:42.617Z,10.13
2023-03-26T11:14:42.645Z,10.12
2023-03-26T11:15:42.620Z,10.07
2023-03-26T11:16:42.582Z,10.09
2023-03-26T11:17:42.595Z,10.10
2023-03-26T11:18:42.564Z,10.09
2023-03-26T11:19:42.545Z,10.09
2023-03-26T11:20:42.568Z,10.13
2023-03-26T11:21:42.518Z,10.13
2023-03-26T11:22:42.495Z,10.16
2023-03-26T11:23:42.483Z,10.09
2023-03-26T11:24:42.478Z,10.09
2023-03-26T11:25:42.490Z,10.05
2023-03-26T11:26:42.450Z,10.09
2023-03-26T11:27:42.439Z,10.09
2023-03-26T11:28:42.415Z,10.04
2023-03-26T11:29:42.401Z,9.99
2023-03-26T11:30:42.462Z,9.95
2023-03-26T11:31:42.433Z,9.94
2023-03-26T11:32:42.389Z,9.89
2023-03-26T11:34:37.047Z,9.89
2023-03-26T11:34:42.364Z,9.92
2023-03-26T11:35:42.405Z,9.99
2023-03-26T11:36:42.308Z,9.99
2023-03-26T11:37:42.296Z,9.97
2023-03-26T11:38:42.277Z,9.98
2023-03-26T11:39:42.298Z,10.04
2023-03-26T11:40:42.256Z,10.12
2023-03-26T11:41:42.240Z,10.15
2023-03-26T11:42:42.231Z,10.19
2023-03-26T11:43:42.226Z,10.20
2023-03-26T11:44:42.214Z,10.20
2023-03-26T11:45:42.241Z,10.20
2023-03-26T11:46:42.236Z,10.20
2023-03-26T11:47:42.185Z,10.23
2023-03-26T11:48:42.172Z,10.30
2023-03-26T11:49:42.127Z,10.34
2023-03-26T11:50:42.105Z,10.37
2023-03-26T11:51:42.161Z,10.42
2023-03-26T11:52:42.087Z,10.44
2023-03-26T11:53:42.077Z,10.46
2023-03-26T11:54:42.060Z,10.49
2023-03-26T11:55:42.043Z,10.48
2023-03-26T11:56:42.128Z,10.48
2023-03-26T11:57:42.074Z,10.53
2023-03-26T11:58:41.999Z,10.53
2023-03-26T11:59:55.604Z,10.53
2023-03-26T12:00:41.985Z,10.57
2023-03-26T12:01:42.017Z,10.61
2023-03-26T12:02:41.982Z,10.67
2023-03-26T12:03:41.938Z,10.72
2023-03-26T12:04:41.969Z,10.75
2023-03-26T12:05:41.895Z,10.81
2023-03-26T12:06:41.885Z,10.89
2023-03-26T12:07:41.903Z,10.96
2023-03-26T12:08:41.855Z,11.04
2023-03-26T12:09:41.861Z,11.15
2023-03-26T12:10:41.839Z,11.30
2023-03-26T12:11:41.819Z,11.37
2023-03-26T12:12:41.885Z,11.54
2023-03-26T12:13:41.938Z,11.65
2023-03-26T12:14:41.792Z,11.72
2023-03-26T12:15:41.763Z,11.73
2023-03-26T12:16:41.775Z,11.77
2023-03-26T12:17:41.784Z,11.78
2023-03-26T12:18:41.740Z,11.81
2023-03-26T12:19:41.731Z,11.84
2023-03-26T12:20:41.694Z,11.90
2023-03-26T12:21:41.687Z,11.94
2023-03-26T12:22:43.485Z,12.00
2023-03-26T12:23:41.651Z,12.04
2023-03-26T12:24:41.648Z,12.09
2023-03-26T12:25:41.631Z,12.12
2023-03-26T12:26:41.814Z,12.12
2023-03-26T12:27:41.608Z,12.15
2023-03-26T12:28:42.997Z,12.15
2023-03-26T12:29:41.582Z,12.15
2023-03-26T12:30:41.558Z,12.17
2023-03-26T12:31:41.590Z,12.20
2023-03-26T12:32:46.157Z,12.24
2023-03-26T12:33:41.557Z,12.22
2023-03-26T12:34:41.525Z,12.25
2023-03-26T12:35:41.529Z,12.25
2023-03-26T12:36:41.500Z,12.24
2023-03-26T12:37:41.471Z,12.25
2023-03-26T12:38:41.493Z,12.24
2023-03-26T12:40:07.350Z,12.25
2023-03-26T12:40:41.419Z,12.25
2023-03-26T12:43:51.346Z,12.28
2023-03-26T12:44:59.577Z,12.29
2023-03-26T12:45:05.551Z,12.32
2023-03-26T12:47:56.875Z,12.29
2023-03-26T12:48:08.173Z,12.27
2023-03-26T12:48:13.741Z,12.25
2023-03-26T12:49:13.749Z,12.21
2023-03-26T12:50:13.565Z,12.21
2023-03-26T12:51:13.552Z,12.17
2023-03-26T12:52:13.539Z,12.13
2023-03-26T12:53:13.517Z,12.12
2023-03-26T12:54:13.547Z,12.10
2023-03-26T12:55:13.501Z,12.10
2023-03-26T12:56:13.473Z,12.07
2023-03-26T12:57:13.616Z,12.06
2023-03-26T12:58:14.175Z,12.07
2023-03-26T12:59:13.447Z,12.06
2023-03-26T13:00:13.462Z,12.09
2023-03-26T13:01:13.450Z,12.07
2023-03-26T13:02:13.432Z,12.04
2023-03-26T13:03:13.558Z,12.06
2023-03-26T13:04:13.402Z,12.06
2023-03-26T13:05:13.380Z,12.04
2023-03-26T13:06:13.340Z,12.04
2023-03-26T13:07:13.328Z,12.03
2023-03-26T13:08:13.339Z,12.02
2023-03-26T13:09:13.316Z,12.00
2023-03-26T13:10:13.291Z,11.97
2023-03-26T13:11:13.282Z,11.94
2023-03-26T13:12:13.264Z,11.90